Time;durP1;ratioP1;P1;durP2;ratioP2;P2;SDS_P1;SDS_P2;PMS_P1;PMS_P2;Temp;Humidity;BMP_temperature;BMP_pressure;BME280_temperature;BME280_humidity;BME280_pressure;Samples;Min_cycle;Max_cycle;Signal;HPM_P1;HPM_P2
2023/02/11 00:00:51;;;;;;;;;;;1.10;75.80;;;;;;4999383;28;19976;-76
2023/02/11 00:03:16;;;;;;;;;;;1.00;75.90;;;;;;4988173;28;19909;-75
2023/02/11 00:05:42;;;;;;;;;;;1.00;76.20;;;;;;5003721;28;19909;-75
2023/02/11 00:08:08;;;;;;;;;;;0.90;76.60;;;;;;5005735;28;19910;-76
2023/02/11 00:10:33;;;;;;;;;;;0.90;76.70;;;;;;4994253;28;19965;-76
2023/02/11 00:12:59;;;;;;;;;;;0.80;76.80;;;;;;4997477;28;19914;-76
2023/02/11 00:15:24;;;;;;;;;;;0.80;76.90;;;;;;5004738;28;19917;-77
2023/02/11 00:17:50;;;;;;;;;;;0.70;77.50;;;;;;5004239;28;19917;-76
2023/02/11 00:20:15;;;;;;;;;;;0.70;77.30;;;;;;4999655;28;19913;-76
2023/02/11 00:22:41;;;;;;;;;;;0.70;77.50;;;;;;4996534;28;20007;-76
2023/02/11 00:25:07;;;;;;;;;;;0.70;77.60;;;;;;4997248;28;19951;-77
2023/02/11 00:27:32;;;;;;;;;;;0.70;77.60;;;;;;4999733;28;19956;-76
2023/02/11 00:29:59;;;;;;;;;;;0.80;77.10;;;;;;5000151;28;20416;-76
2023/02/11 00:32:25;;;;;;;;;;;0.70;76.80;;;;;;5003496;28;20429;-76
2023/02/11 00:34:51;;;;;;;;;;;0.70;76.90;;;;;;4992530;28;19922;-76
2023/02/11 00:37:16;;;;;;;;;;;0.70;77.00;;;;;;5003182;28;19928;-76
2023/02/11 00:39:42;;;;;;;;;;;0.60;77.40;;;;;;5001294;28;20563;-76
2023/02/11 00:42:08;;;;;;;;;;;0.50;77.60;;;;;;5003713;28;19918;-76
2023/02/11 00:44:33;;;;;;;;;;;0.60;77.30;;;;;;4999350;28;20742;-76
2023/02/11 00:46:59;;;;;;;;;;;0.50;77.30;;;;;;4996475;28;19991;-76
2023/02/11 00:49:24;;;;;;;;;;;0.60;77.30;;;;;;4991552;28;20331;-76
2023/02/11 00:51:50;;;;;;;;;;;0.60;77.30;;;;;;4993382;28;20636;-76
2023/02/11 00:54:15;;;;;;;;;;;0.60;76.80;;;;;;4989718;28;19917;-76
2023/02/11 00:56:41;;;;;;;;;;;0.60;76.80;;;;;;4993936;28;19912;-76
2023/02/11 00:59:08;;;;;;;;;;;0.50;77.00;;;;;;4998908;28;20055;-76
2023/02/11 01:01:34;;;;;;;;;;;0.50;77.30;;;;;;4993823;28;20301;-76
2023/02/11 01:03:59;;;;;;;;;;;0.40;77.50;;;;;;5000013;28;19909;-76
2023/02/11 01:06:25;;;;;;;;;;;0.50;77.10;;;;;;5004279;28;19910;-75
2023/02/11 01:08:50;;;;;;;;;;;0.40;77.00;;;;;;4989914;28;19917;-76
2023/02/11 01:11:17;;;;;;;;;;;0.40;77.30;;;;;;4992701;28;19914;-76
2023/02/11 01:13:43;;;;;;;;;;;0.30;77.40;;;;;;5000679;28;20381;-76
2023/02/11 01:16:09;;;;;;;;;;;0.30;77.60;;;;;;4989696;28;19917;-76
2023/02/11 01:18:35;;;;;;;;;;;0.20;77.90;;;;;;4987697;28;19960;-76
2023/02/11 01:21:01;;;;;;;;;;;0.20;77.70;;;;;;4998601;28;19917;-76
2023/02/11 01:23:27;;;;;;;;;;;0.20;78.10;;;;;;5004426;28;19913;-76
2023/02/11 01:25:53;;;;;;;;;;;0.20;78.00;;;;;;4993232;28;20380;-77
2023/02/11 01:28:22;;;;;;;;;;;0.10;78.20;;;;;;4999155;28;20444;-76
2023/02/11 01:30:48;;;;;;;;;;;0.00;78.40;;;;;;5003193;28;19909;-77
2023/02/11 01:33:13;;;;;;;;;;;0.00;78.60;;;;;;5003794;28;19963;-76
2023/02/11 01:35:39;;;;;;;;;;;-0.10;78.80;;;;;;4991750;28;19957;-77
2023/02/11 01:38:06;;;;;;;;;;;-0.10;78.90;;;;;;4991267;28;19913;-77
2023/02/11 01:40:31;;;;;;;;;;;-0.10;78.70;;;;;;4996649;28;19914;-77
2023/02/11 01:42:57;;;;;;;;;;;-0.10;78.50;;;;;;4982139;28;19985;-77
2023/02/11 01:45:52;;;;;;;;;;;-0.10;78.60;;;;;;4998364;28;20515;-77
2023/02/11 01:48:25;;;;;;;;;;;-0.10;78.50;;;;;;4993368;28;20036;-76
2023/02/11 01:50:53;;;;;;;;;;;-0.10;78.70;;;;;;4998421;28;19920;-76
2023/02/11 01:58:50;;;;;;;;;;;-0.20;78.30;;;;;;5001927;28;19920;-76
2023/02/11 02:01:18;;;;;;;;;;;-0.30;78.40;;;;;;5004223;28;19928;-76
2023/02/11 02:03:45;;;;;;;;;;;-0.30;78.60;;;;;;5003734;28;19913;-76
2023/02/11 02:06:15;;;;;;;;;;;-0.30;78.50;;;;;;4986005;28;19952;-76
2023/02/11 02:08:57;;;;;;;;;;;-0.30;78.30;;;;;;4986058;28;19913;-75
2023/02/11 02:11:23;;;;;;;;;;;-0.30;78.20;;;;;;4993862;28;19917;-76
2023/02/11 02:13:49;;;;;;;;;;;-0.40;78.40;;;;;;4989857;28;19940;-76
2023/02/11 02:16:16;;;;;;;;;;;-0.40;78.30;;;;;;5004461;28;20015;-76
2023/02/11 02:18:55;;;;;;;;;;;-0.20;77.70;;;;;;5001210;28;20009;-75
2023/02/11 02:21:39;;;;;;;;;;;-0.30;78.00;;;;;;5003946;28;19906;-76
2023/02/11 02:24:23;;;;;;;;;;;-0.30;78.20;;;;;;4998864;28;19913;-75
2023/02/11 02:27:09;;;;;;;;;;;-0.30;77.80;;;;;;5000151;28;19921;-75
2023/02/11 02:29:37;;;;;;;;;;;-0.30;77.60;;;;;;4992422;28;19921;-76
2023/02/11 02:32:35;;;;;;;;;;;-0.20;77.00;;;;;;4995173;28;20360;-76
2023/02/11 02:35:09;;;;;;;;;;;-0.30;77.30;;;;;;4981497;28;19925;-76
2023/02/11 02:37:53;;;;;;;;;;;-0.40;77.80;;;;;;4998205;28;20447;-75
2023/02/11 02:40:22;;;;;;;;;;;-0.40;77.70;;;;;;4993541;28;19968;-76
2023/02/11 02:42:48;;;;;;;;;;;-0.40;77.70;;;;;;4994487;28;20020;-75
2023/02/11 02:45:14;;;;;;;;;;;-0.40;77.50;;;;;;4990501;28;19968;-75
2023/02/11 02:47:40;;;;;;;;;;;-0.30;77.00;;;;;;4994472;28;19920;-75
2023/02/11 02:50:06;;;;;;;;;;;-0.30;77.10;;;;;;5000691;28;19913;-75
2023/02/11 02:52:50;;;;;;;;;;;-0.40;78.00;;;;;;4994252;28;19924;-75
2023/02/11 02:55:21;;;;;;;;;;;-0.50;77.70;;;;;;4998333;28;20300;-75
2023/02/11 02:57:47;;;;;;;;;;;-0.50;77.60;;;;;;4997662;28;19914;-76
2023/02/11 03:00:31;;;;;;;;;;;-0.40;77.50;;;;;;4997526;28;19909;-76
2023/02/11 03:02:59;;;;;;;;;;;-0.50;77.90;;;;;;5003099;28;20664;-75
2023/02/11 03:05:25;;;;;;;;;;;-0.50;78.00;;;;;;4990908;28;20007;-76
2023/02/11 03:08:08;;;;;;;;;;;-0.40;77.50;;;;;;4997005;28;20429;-75
2023/02/11 03:10:36;;;;;;;;;;;-0.50;77.70;;;;;;4998751;28;19917;-75
2023/02/11 03:13:03;;;;;;;;;;;-0.60;78.10;;;;;;4994599;28;19998;-75
2023/02/11 03:15:31;;;;;;;;;;;-0.60;78.50;;;;;;4988757;28;19921;-75
2023/02/11 03:17:58;;;;;;;;;;;-0.60;78.60;;;;;;5004175;28;20078;-75
2023/02/11 03:20:24;;;;;;;;;;;-0.70;78.50;;;;;;5001646;28;19909;-75
2023/02/11 03:22:54;;;;;;;;;;;-0.70;78.60;;;;;;5003153;28;19920;-75
2023/02/11 03:25:22;;;;;;;;;;;-0.70;78.40;;;;;;4989203;28;19920;-75
2023/02/11 03:28:17;;;;;;;;;;;-0.70;78.60;;;;;;4993594;28;19909;-75
2023/02/11 03:30:46;;;;;;;;;;;-0.80;78.50;;;;;;4994380;28;19917;-75
2023/02/11 03:33:16;;;;;;;;;;;-0.80;78.60;;;;;;4997508;28;20028;-75
2023/02/11 03:35:43;;;;;;;;;;;-0.70;78.40;;;;;;4998924;28;19957;-75
2023/02/11 03:38:20;;;;;;;;;;;-0.80;78.20;;;;;;4998417;28;19913;-75
2023/02/11 03:40:46;;;;;;;;;;;-0.80;78.10;;;;;;4994359;28;20357;-75
2023/02/11 03:43:16;;;;;;;;;;;-0.80;78.40;;;;;;4976593;28;19913;-75
2023/02/11 03:45:42;;;;;;;;;;;-0.90;78.30;;;;;;4994291;28;19925;-75
2023/02/11 03:48:11;;;;;;;;;;;-0.90;78.60;;;;;;4991273;28;19948;-76
2023/02/11 03:50:37;;;;;;;;;;;-0.90;78.60;;;;;;4994662;28;19940;-76
2023/02/11 03:53:03;;;;;;;;;;;-0.90;78.90;;;;;;4999286;28;20388;-76
2023/02/11 03:55:30;;;;;;;;;;;-0.90;78.80;;;;;;4995343;28;19960;-75
2023/02/11 03:57:55;;;;;;;;;;;-0.90;78.70;;;;;;4996892;28;20004;-75
2023/02/11 04:00:28;;;;;;;;;;;-0.90;78.70;;;;;;4998583;28;19920;-75
2023/02/11 04:02:55;;;;;;;;;;;-1.00;78.70;;;;;;4997006;28;20304;-76
2023/02/11 04:05:20;;;;;;;;;;;-1.00;78.80;;;;;;5000503;28;19917;-76
2023/02/11 04:07:46;;;;;;;;;;;-1.00;79.20;;;;;;5002616;28;20023;-75
2023/02/11 04:10:12;;;;;;;;;;;-1.10;79.10;;;;;;5001030;28;20613;-76
2023/02/11 04:12:37;;;;;;;;;;;-1.00;78.70;;;;;;4995121;28;20020;-76
2023/02/11 04:15:03;;;;;;;;;;;-1.00;78.60;;;;;;4999658;28;20011;-76
2023/02/11 04:17:28;;;;;;;;;;;-1.00;78.70;;;;;;4993746;28;19914;-77
2023/02/11 04:19:54;;;;;;;;;;;-1.00;79.00;;;;;;5000063;28;20460;-76
2023/02/11 04:22:19;;;;;;;;;;;-1.00;78.50;;;;;;4987199;28;19909;-76
2023/02/11 04:24:45;;;;;;;;;;;-0.90;78.30;;;;;;4992675;28;20747;-76
2023/02/11 04:27:11;;;;;;;;;;;-0.90;78.20;;;;;;5001327;28;19917;-76
2023/02/11 04:29:36;;;;;;;;;;;-0.90;78.30;;;;;;4998831;28;19953;-76
2023/02/11 04:32:02;;;;;;;;;;;-0.80;77.90;;;;;;4992629;28;20031;-75
2023/02/11 04:34:27;;;;;;;;;;;-0.90;78.30;;;;;;4993778;28;19992;-76
2023/02/11 04:36:53;;;;;;;;;;;-0.90;78.40;;;;;;4996711;28;20612;-76
2023/02/11 04:39:19;;;;;;;;;;;-1.00;78.50;;;;;;4999994;28;19913;-76
2023/02/11 04:41:44;;;;;;;;;;;-0.80;78.10;;;;;;4995804;28;19921;-76
2023/02/11 04:44:10;;;;;;;;;;;-0.70;77.60;;;;;;4992005;28;19909;-76
2023/02/11 04:46:35;;;;;;;;;;;-0.90;78.30;;;;;;5004075;28;19909;-76
2023/02/11 04:49:01;;;;;;;;;;;-0.80;78.20;;;;;;5002089;28;19929;-76
2023/02/11 04:51:27;;;;;;;;;;;-0.80;78.20;;;;;;5002966;28;19913;-76
2023/02/11 04:53:52;;;;;;;;;;;-0.90;78.70;;;;;;4982358;28;19917;-76
2023/02/11 04:56:18;;;;;;;;;;;-1.00;78.90;;;;;;4993689;28;19913;-76
2023/02/11 04:58:43;;;;;;;;;;;-1.00;78.80;;;;;;4993436;28;19914;-76
2023/02/11 05:01:11;;;;;;;;;;;-0.90;78.20;;;;;;4997658;28;19921;-75
2023/02/11 05:03:36;;;;;;;;;;;-0.90;77.70;;;;;;5004460;28;19913;-75
2023/02/11 05:06:02;;;;;;;;;;;-0.90;77.90;;;;;;4993222;28;19920;-75
2023/02/11 05:08:28;;;;;;;;;;;-0.90;77.70;;;;;;5004229;28;19957;-75
2023/02/11 05:10:53;;;;;;;;;;;-0.90;77.50;;;;;;4989053;28;20605;-75
2023/02/11 05:13:19;;;;;;;;;;;-0.80;77.20;;;;;;4986510;28;19961;-75
2023/02/11 05:15:44;;;;;;;;;;;-1.00;77.70;;;;;;4992005;28;20369;-76
2023/02/11 05:18:10;;;;;;;;;;;-1.10;78.30;;;;;;5002242;28;19955;-76
2023/02/11 05:20:39;;;;;;;;;;;-1.10;78.50;;;;;;5002873;28;20013;-76
2023/02/11 05:23:05;;;;;;;;;;;-1.00;78.20;;;;;;5005417;28;19913;-76
2023/02/11 05:25:30;;;;;;;;;;;-1.00;78.10;;;;;;5003859;28;19991;-76
2023/02/11 05:27:56;;;;;;;;;;;-1.10;78.30;;;;;;5005360;28;20372;-76
2023/02/11 05:30:21;;;;;;;;;;;-1.10;78.40;;;;;;5000858;28;19914;-76
2023/02/11 05:32:47;;;;;;;;;;;-1.20;78.50;;;;;;4999974;28;20474;-76
2023/02/11 05:35:12;;;;;;;;;;;-1.20;78.40;;;;;;4978970;28;19913;-75
2023/02/11 05:37:38;;;;;;;;;;;-1.30;78.90;;;;;;5002327;28;19913;-76
2023/02/11 05:40:04;;;;;;;;;;;-1.30;79.10;;;;;;4999983;28;19925;-76
2023/02/11 05:42:29;;;;;;;;;;;-1.20;79.00;;;;;;5000366;28;20312;-76
2023/02/11 05:44:55;;;;;;;;;;;-1.20;79.20;;;;;;4998996;28;19921;-75
2023/02/11 05:47:20;;;;;;;;;;;-1.30;79.40;;;;;;4999446;28;20434;-75
2023/02/11 05:49:46;;;;;;;;;;;-1.40;79.60;;;;;;5000311;28;19914;-76
2023/02/11 05:52:11;;;;;;;;;;;-1.40;79.60;;;;;;4998405;28;19917;-75
2023/02/11 05:54:37;;;;;;;;;;;-1.40;80.00;;;;;;4994253;28;19913;-75
2023/02/11 05:57:03;;;;;;;;;;;-1.50;79.80;;;;;;4998152;28;20004;-76
2023/02/11 05:59:28;;;;;;;;;;;-1.30;79.30;;;;;;5001968;28;19995;-75
2023/02/11 06:01:54;;;;;;;;;;;-1.40;79.60;;;;;;5002810;28;19928;-75
2023/02/11 06:04:19;;;;;;;;;;;-1.30;79.50;;;;;;5003347;28;19917;-75
2023/02/11 06:06:45;;;;;;;;;;;-1.40;79.30;;;;;;5002177;28;19920;-75
2023/02/11 06:09:10;;;;;;;;;;;-1.30;79.30;;;;;;4996530;28;19924;-76
2023/02/11 06:11:36;;;;;;;;;;;-1.30;79.20;;;;;;4995745;28;19928;-75
2023/02/11 06:14:02;;;;;;;;;;;-1.30;79.30;;;;;;4995300;28;19918;-75
2023/02/11 06:16:28;;;;;;;;;;;-1.40;79.40;;;;;;5000956;28;19913;-76
2023/02/11 06:18:53;;;;;;;;;;;-1.50;79.70;;;;;;4995893;28;19914;-75
2023/02/11 06:21:19;;;;;;;;;;;-1.40;79.80;;;;;;5001974;28;20339;-76
2023/02/11 06:23:44;;;;;;;;;;;-1.40;79.70;;;;;;4997100;28;20484;-76
2023/02/11 06:26:15;;;;;;;;;;;-1.40;79.90;;;;;;4996804;28;19913;-75
2023/02/11 06:28:40;;;;;;;;;;;-1.40;79.70;;;;;;4998908;28;19914;-75
2023/02/11 06:31:06;;;;;;;;;;;-1.40;79.70;;;;;;4998257;28;19917;-75
2023/02/11 06:33:32;;;;;;;;;;;-1.30;79.40;;;;;;4997280;28;19922;-75
2023/02/11 06:35:58;;;;;;;;;;;-1.30;79.60;;;;;;4997752;28;19913;-75
2023/02/11 06:38:23;;;;;;;;;;;-1.40;80.10;;;;;;4993902;28;19956;-76
2023/02/11 06:40:49;;;;;;;;;;;-1.40;80.90;;;;;;4997143;28;20351;-75
2023/02/11 06:43:15;;;;;;;;;;;-1.50;81.30;;;;;;4995286;28;19924;-76
2023/02/11 06:45:40;;;;;;;;;;;-1.60;81.80;;;;;;4998933;28;20558;-76
2023/02/11 06:48:06;;;;;;;;;;;-1.60;82.10;;;;;;5000787;28;19921;-76
2023/02/11 06:50:32;;;;;;;;;;;-1.60;82.00;;;;;;4999227;28;19983;-76
2023/02/11 06:52:58;;;;;;;;;;;-1.60;82.30;;;;;;4997146;28;19929;-76
2023/02/11 06:55:23;;;;;;;;;;;-1.50;81.70;;;;;;4992182;28;19920;-76
2023/02/11 06:57:49;;;;;;;;;;;-1.70;82.50;;;;;;4998474;28;19909;-76
2023/02/11 07:00:15;;;;;;;;;;;-1.60;82.20;;;;;;4992898;28;19909;-76
2023/02/11 07:02:40;;;;;;;;;;;-1.60;82.60;;;;;;4998163;28;19996;-75
2023/02/11 07:05:06;;;;;;;;;;;-1.60;82.70;;;;;;4984575;28;20297;-76
2023/02/11 07:07:32;;;;;;;;;;;-1.70;82.60;;;;;;4989904;28;20734;-75
2023/02/11 07:09:57;;;;;;;;;;;-1.70;83.10;;;;;;4992060;28;19917;-76
2023/02/11 07:12:23;;;;;;;;;;;-1.70;83.40;;;;;;4990214;28;19921;-76
2023/02/11 07:14:49;;;;;;;;;;;-1.80;83.90;;;;;;5002838;28;19909;-76
2023/02/11 07:17:14;;;;;;;;;;;-1.80;84.10;;;;;;5000959;28;19921;-76
2023/02/11 07:19:40;;;;;;;;;;;-1.80;83.90;;;;;;4999158;28;19909;-75
2023/02/11 07:22:05;;;;;;;;;;;-1.70;84.00;;;;;;5000232;28;19909;-75
2023/02/11 07:24:31;;;;;;;;;;;-1.80;84.10;;;;;;4993412;28;19932;-76
2023/02/11 07:26:57;;;;;;;;;;;-1.60;83.90;;;;;;4997939;28;20020;-76
2023/02/11 07:29:22;;;;;;;;;;;-0.60;81.10;;;;;;4992693;28;19910;-76
2023/02/11 07:31:49;;;;;;;;;;;0.10;78.00;;;;;;4991154;28;20028;-77
2023/02/11 07:34:14;;;;;;;;;;;0.20;77.00;;;;;;5000821;28;19913;-77
2023/02/11 07:36:42;;;;;;;;;;;0.20;77.30;;;;;;4979163;28;20331;-77
2023/02/11 07:39:08;;;;;;;;;;;0.30;76.80;;;;;;4998120;28;19920;-77
2023/02/11 07:41:34;;;;;;;;;;;0.20;76.60;;;;;;4990701;28;19913;-76
2023/02/11 07:44:01;;;;;;;;;;;0.50;75.50;;;;;;4996226;28;19932;-77
2023/02/11 07:46:26;;;;;;;;;;;0.80;74.60;;;;;;4999373;28;19913;-77
2023/02/11 07:48:52;;;;;;;;;;;1.10;73.60;;;;;;4990515;28;19910;-77
2023/02/11 07:51:19;;;;;;;;;;;1.30;72.40;;;;;;4996596;28;19913;-76
2023/02/11 07:53:45;;;;;;;;;;;1.50;72.30;;;;;;4995494;28;20369;-76
2023/02/11 07:56:11;;;;;;;;;;;1.80;71.30;;;;;;4988649;28;19913;-76
2023/02/11 07:58:37;;;;;;;;;;;1.80;71.30;;;;;;4992761;28;19964;-76
2023/02/11 08:01:03;;;;;;;;;;;1.40;72.20;;;;;;4996986;28;19921;-77
2023/02/11 08:03:29;;;;;;;;;;;0.40;74.40;;;;;;4996284;28;20356;-77
2023/02/11 08:05:55;;;;;;;;;;;0.30;75.70;;;;;;4997612;28;20000;-77
2023/02/11 08:08:20;;;;;;;;;;;0.80;74.70;;;;;;4999526;28;19913;-77
2023/02/11 08:10:46;;;;;;;;;;;1.70;72.30;;;;;;4985218;28;19917;-76
2023/02/11 08:13:11;;;;;;;;;;;2.20;71.40;;;;;;4995952;28;19928;-77
2023/02/11 08:15:37;;;;;;;;;;;2.40;70.30;;;;;;4996084;28;19913;-76
2023/02/11 08:18:02;;;;;;;;;;;2.40;70.30;;;;;;5000753;28;20266;-77
2023/02/11 08:20:28;;;;;;;;;;;2.30;70.30;;;;;;5002650;28;19936;-77
2023/02/11 08:22:54;;;;;;;;;;;2.30;70.60;;;;;;5003165;28;20732;-77
2023/02/11 08:25:19;;;;;;;;;;;2.60;69.70;;;;;;5004362;28;19917;-77
2023/02/11 08:27:45;;;;;;;;;;;2.50;70.40;;;;;;5003678;28;19917;-76
2023/02/11 08:30:10;;;;;;;;;;;2.70;70.50;;;;;;4996865;28;19913;-77
2023/02/11 08:32:38;;;;;;;;;;;3.00;70.20;;;;;;4997699;28;19928;-77
2023/02/11 08:35:04;;;;;;;;;;;3.20;69.20;;;;;;5005057;28;19995;-77
2023/02/11 08:37:29;;;;;;;;;;;3.20;69.30;;;;;;5003804;28;19992;-76
2023/02/11 08:39:55;;;;;;;;;;;3.30;69.70;;;;;;5003233;28;19952;-76
2023/02/11 08:42:20;;;;;;;;;;;3.60;68.10;;;;;;5000782;28;19964;-79
2023/02/11 08:44:46;;;;;;;;;;;3.80;68.90;;;;;;5003360;28;20036;-75
2023/02/11 08:47:12;;;;;;;;;;;3.80;68.80;;;;;;5000400;28;19914;-75
2023/02/11 08:49:37;;;;;;;;;;;4.00;67.60;;;;;;5002883;28;19913;-75
2023/02/11 08:52:03;;;;;;;;;;;4.00;67.00;;;;;;4993445;28;20377;-76
2023/02/11 08:54:29;;;;;;;;;;;4.00;68.10;;;;;;5001664;28;19913;-76
2023/02/11 08:56:55;;;;;;;;;;;4.10;67.10;;;;;;5002459;28;19913;-76
2023/02/11 08:59:21;;;;;;;;;;;4.20;67.40;;;;;;5000793;28;19917;-76
2023/02/11 09:01:46;;;;;;;;;;;4.00;68.60;;;;;;5002094;28;19922;-76
2023/02/11 09:04:12;;;;;;;;;;;4.00;68.30;;;;;;5002714;28;19960;-76
2023/02/11 09:06:38;;;;;;;;;;;4.30;67.50;;;;;;5005191;28;19914;-76
2023/02/11 09:09:03;;;;;;;;;;;4.50;67.40;;;;;;4999592;28;19957;-76
2023/02/11 09:11:31;;;;;;;;;;;4.30;68.10;;;;;;4996812;28;20008;-76
2023/02/11 09:13:56;;;;;;;;;;;4.50;68.20;;;;;;5001546;28;19913;-75
2023/02/11 09:16:23;;;;;;;;;;;4.70;67.40;;;;;;5001174;28;19913;-76
2023/02/11 09:18:49;;;;;;;;;;;4.80;67.50;;;;;;4998713;28;19910;-76
2023/02/11 09:21:16;;;;;;;;;;;4.90;66.30;;;;;;4997726;28;20003;-77
2023/02/11 09:23:43;;;;;;;;;;;4.90;64.90;;;;;;5000361;28;19917;-76
2023/02/11 09:26:23;;;;;;;;;;;4.90;65.30;;;;;;4993774;28;19913;-77
2023/02/11 09:28:50;;;;;;;;;;;5.10;65.50;;;;;;4995368;28;19920;-78
2023/02/11 09:31:16;;;;;;;;;;;5.20;65.90;;;;;;4982668;28;19914;-76
2023/02/11 09:33:46;;;;;;;;;;;5.40;66.10;;;;;;5000849;28;19921;-76
2023/02/11 09:36:19;;;;;;;;;;;5.30;64.10;;;;;;4992017;28;19921;-75
2023/02/11 09:38:45;;;;;;;;;;;5.50;63.90;;;;;;4998200;28;19921;-76
2023/02/11 09:41:23;;;;;;;;;;;5.50;63.30;;;;;;4994956;28;19909;-75
2023/02/11 09:43:56;;;;;;;;;;;5.30;64.40;;;;;;4991407;28;20012;-75
2023/02/11 09:46:22;;;;;;;;;;;5.10;62.50;;;;;;4995590;28;19916;-76
2023/02/11 09:48:51;;;;;;;;;;;5.20;63.30;;;;;;4989060;28;20546;-76
2023/02/11 09:51:19;;;;;;;;;;;5.40;62.60;;;;;;4994048;28;19910;-76
2023/02/11 09:53:47;;;;;;;;;;;5.50;62.70;;;;;;4999171;28;19923;-76
2023/02/11 09:56:13;;;;;;;;;;;5.60;63.00;;;;;;5004010;28;19917;-77
2023/02/11 09:58:40;;;;;;;;;;;5.70;61.50;;;;;;4988597;28;19909;-77
2023/02/11 10:01:05;;;;;;;;;;;5.70;60.80;;;;;;5000545;28;19922;-76
2023/02/11 10:03:57;;;;;;;;;;;5.90;60.80;;;;;;5001976;28;19980;-75
2023/02/11 10:06:26;;;;;;;;;;;6.00;60.80;;;;;;4999850;28;19917;-77
2023/02/11 10:08:52;;;;;;;;;;;5.90;59.60;;;;;;4999671;28;20339;-74
2023/02/11 10:11:25;;;;;;;;;;;5.90;59.00;;;;;;4996927;28;19913;-74
2023/02/11 10:14:11;;;;;;;;;;;6.10;59.00;;;;;;4999609;28;19917;-74
2023/02/11 10:16:55;;;;;;;;;;;6.20;60.20;;;;;;4998400;28;19914;-75
2023/02/11 10:19:39;;;;;;;;;;;6.20;58.50;;;;;;4992221;28;19909;-73
2023/02/11 10:22:17;;;;;;;;;;;6.40;61.90;;;;;;4997692;28;19913;-76
2023/02/11 10:24:49;;;;;;;;;;;6.50;57.30;;;;;;4997424;28;19917;-77
2023/02/11 10:27:16;;;;;;;;;;;6.80;58.00;;;;;;4994858;28;19909;-74
2023/02/11 10:29:58;;;;;;;;;;;6.60;57.30;;;;;;5002582;28;19940;-73
2023/02/11 10:33:02;;;;;;;;;;;6.70;56.30;;;;;;5000875;28;19917;-75
2023/02/11 10:35:27;;;;;;;;;;;6.90;57.20;;;;;;4970718;28;19914;-76
2023/02/11 10:37:54;;;;;;;;;;;6.90;58.10;;;;;;4960939;28;19937;-80
2023/02/11 10:40:24;;;;;;;;;;;7.10;58.10;;;;;;4982691;28;19914;-79
2023/02/11 10:42:51;;;;;;;;;;;7.30;57.80;;;;;;4994869;28;20393;-79
2023/02/11 10:45:26;;;;;;;;;;;7.40;58.00;;;;;;5000433;28;19951;-77
2023/02/11 10:47:51;;;;;;;;;;;7.40;59.10;;;;;;5001794;28;20015;-79
2023/02/11 10:50:19;;;;;;;;;;;7.30;57.20;;;;;;4998107;28;20463;-78
2023/02/11 10:52:44;;;;;;;;;;;7.40;56.40;;;;;;4991449;28;20028;-80
2023/02/11 10:55:17;;;;;;;;;;;7.30;55.20;;;;;;5000417;28;19996;-78
2023/02/11 10:57:51;;;;;;;;;;;7.40;56.10;;;;;;5001248;28;19914;-79
2023/02/11 11:00:17;;;;;;;;;;;7.20;55.50;;;;;;5001592;28;19927;-78
2023/02/11 11:02:43;;;;;;;;;;;7.30;56.50;;;;;;5003411;28;19909;-78
2023/02/11 11:05:20;;;;;;;;;;;7.30;56.80;;;;;;4990685;28;19949;-79
2023/02/11 11:08:00;;;;;;;;;;;7.50;56.60;;;;;;4994813;28;20382;-79
2023/02/11 11:10:26;;;;;;;;;;;7.50;56.50;;;;;;4999362;28;19972;-78
2023/02/11 11:12:52;;;;;;;;;;;7.70;58.00;;;;;;4997170;28;20005;-77
2023/02/11 11:15:25;;;;;;;;;;;7.70;56.40;;;;;;4987982;28;19910;-77
2023/02/11 11:18:08;;;;;;;;;;;7.60;56.70;;;;;;4992436;28;19910;-77
2023/02/11 11:20:35;;;;;;;;;;;7.70;56.60;;;;;;4999308;28;20008;-78
2023/02/11 11:23:14;;;;;;;;;;;7.60;56.60;;;;;;5002229;28;20576;-77
2023/02/11 11:25:42;;;;;;;;;;;7.70;56.40;;;;;;4986909;28;19914;-77
2023/02/11 11:28:17;;;;;;;;;;;7.60;57.30;;;;;;5000905;28;19909;-79
2023/02/11 11:30:43;;;;;;;;;;;7.60;57.10;;;;;;4993549;28;19952;-80
2023/02/11 11:33:18;;;;;;;;;;;7.60;57.40;;;;;;4988414;28;20373;-79
2023/02/11 11:35:53;;;;;;;;;;;7.70;57.60;;;;;;4984987;28;19916;-77
2023/02/11 11:38:19;;;;;;;;;;;7.80;58.40;;;;;;4991096;28;19909;-80
2023/02/11 11:40:44;;;;;;;;;;;7.80;62.30;;;;;;4994821;28;20373;-79
2023/02/11 11:43:13;;;;;;;;;;;8.00;60.10;;;;;;4994211;28;20012;-78
2023/02/11 11:45:38;;;;;;;;;;;8.00;60.80;;;;;;4997969;28;20016;-78
2023/02/11 11:48:10;;;;;;;;;;;8.00;63.30;;;;;;4994780;28;19909;-79
2023/02/11 11:50:35;;;;;;;;;;;8.10;61.80;;;;;;4991950;28;19910;-78
2023/02/11 11:53:22;;;;;;;;;;;8.10;65.20;;;;;;4995747;28;19922;-77
2023/02/11 11:56:07;;;;;;;;;;;8.10;62.70;;;;;;4988239;28;19921;-78
2023/02/11 11:58:33;;;;;;;;;;;8.10;64.40;;;;;;4995773;28;19913;-79
2023/02/11 12:00:59;;;;;;;;;;;8.10;60.70;;;;;;4995664;28;19947;-78
2023/02/11 12:03:27;;;;;;;;;;;8.10;61.40;;;;;;4993891;28;20547;-78
2023/02/11 12:06:11;;;;;;;;;;;8.00;61.70;;;;;;4996347;28;20602;-81
2023/02/11 12:08:42;;;;;;;;;;;8.10;59.80;;;;;;4985199;28;20090;-78
2023/02/11 12:11:13;;;;;;;;;;;8.30;65.50;;;;;;4984276;28;19971;-79
2023/02/11 12:13:48;;;;;;;;;;;8.00;64.20;;;;;;4970670;28;20439;-80
2023/02/11 12:16:22;;;;;;;;;;;8.00;62.90;;;;;;4992646;28;19916;-78
2023/02/11 12:18:59;;;;;;;;;;;8.10;60.60;;;;;;4986524;28;19996;-78
2023/02/11 12:21:25;;;;;;;;;;;8.20;59.10;;;;;;4995757;28;19909;-78
2023/02/11 12:23:50;;;;;;;;;;;8.20;57.40;;;;;;4987868;28;20029;-79
2023/02/11 12:26:17;;;;;;;;;;;8.20;55.90;;;;;;4986820;28;19913;-79
2023/02/11 12:28:58;;;;;;;;;;;8.20;56.80;;;;;;4991870;28;20381;-81
2023/02/11 12:31:24;;;;;;;;;;;8.10;56.60;;;;;;4996610;28;19910;-77
2023/02/11 12:34:05;;;;;;;;;;;8.20;56.50;;;;;;4997201;28;19940;-81
2023/02/11 12:36:53;;;;;;;;;;;8.30;56.90;;;;;;4991326;28;19920;-80
2023/02/11 12:39:27;;;;;;;;;;;8.30;55.70;;;;;;4987227;28;20018;-78
2023/02/11 12:44:40;;;;;;;;;;;8.30;58.90;;;;;;5000065;28;19964;-81
2023/02/11 12:47:15;;;;;;;;;;;8.40;59.10;;;;;;4991602;28;19917;-79
2023/02/11 12:49:52;;;;;;;;;;;8.50;59.00;;;;;;5001131;28;19905;-80
2023/02/11 12:52:20;;;;;;;;;;;8.50;58.50;;;;;;4995112;28;20755;-80
2023/02/11 12:54:46;;;;;;;;;;;8.40;60.60;;;;;;4984255;28;20158;-78
2023/02/11 12:57:15;;;;;;;;;;;8.30;60.10;;;;;;4992817;28;20731;-77
2023/02/11 12:59:44;;;;;;;;;;;8.40;59.40;;;;;;4983937;28;19916;-79
2023/02/11 13:02:23;;;;;;;;;;;8.40;58.80;;;;;;5000726;28;19922;-81
2023/02/11 13:04:51;;;;;;;;;;;8.60;58.20;;;;;;4994074;28;19910;-80
2023/02/11 13:07:23;;;;;;;;;;;8.60;58.60;;;;;;4990282;28;19906;-79
2023/02/11 13:10:00;;;;;;;;;;;8.50;59.10;;;;;;4994157;28;19949;-78
2023/02/11 13:15:13;;;;;;;;;;;8.30;57.40;;;;;;4992730;28;19968;-78
2023/02/11 13:17:59;;;;;;;;;;;8.50;61.60;;;;;;4990107;28;19914;-77
2023/02/11 13:20:29;;;;;;;;;;;8.70;61.20;;;;;;4993948;28;19926;-78
2023/02/11 13:23:01;;;;;;;;;;;8.60;61.10;;;;;;4995873;28;20343;-79
2023/02/11 13:25:50;;;;;;;;;;;8.40;61.10;;;;;;4988604;28;19949;-77
2023/02/11 13:28:28;;;;;;;;;;;8.40;59.30;;;;;;4995623;28;20008;-79
2023/02/11 13:31:01;;;;;;;;;;;8.40;59.40;;;;;;4996130;28;19910;-78
2023/02/11 13:33:34;;;;;;;;;;;8.50;56.40;;;;;;4992150;28;20289;-78
2023/02/11 13:35:59;;;;;;;;;;;8.40;57.10;;;;;;4991887;28;19910;-79
2023/02/11 13:38:26;;;;;;;;;;;8.40;59.90;;;;;;4976838;28;19980;-80
2023/02/11 13:41:03;;;;;;;;;;;8.60;59.70;;;;;;4987567;28;19937;-77
2023/02/11 13:43:34;;;;;;;;;;;8.60;58.10;;;;;;4988658;28;20397;-79
2023/02/11 13:46:04;;;;;;;;;;;8.50;56.30;;;;;;4999007;28;19909;-77
2023/02/11 13:48:37;;;;;;;;;;;8.50;59.60;;;;;;4994482;28;19910;-80
2023/02/11 13:51:11;;;;;;;;;;;8.80;61.20;;;;;;5002048;28;19916;-81
2023/02/11 13:53:56;;;;;;;;;;;8.90;60.20;;;;;;4986799;28;19917;-79
2023/02/11 13:56:29;;;;;;;;;;;8.70;59.00;;;;;;4994137;28;20264;-80
2023/02/11 13:58:55;;;;;;;;;;;8.50;58.40;;;;;;4986437;28;19909;-80
2023/02/11 14:01:41;;;;;;;;;;;8.60;54.70;;;;;;4997340;28;19925;-79
2023/02/11 14:10:34;;;;;;;;;;;8.60;57.40;;;;;;4994125;28;19917;-77
2023/02/11 14:13:18;;;;;;;;;;;8.60;60.00;;;;;;4998193;28;19929;-80
2023/02/11 14:15:44;;;;;;;;;;;8.90;59.70;;;;;;4998257;28;20371;-77
2023/02/11 14:18:29;;;;;;;;;;;8.70;58.90;;;;;;4992257;28;19995;-79
2023/02/11 14:21:01;;;;;;;;;;;8.50;57.40;;;;;;5001154;28;19967;-81
2023/02/11 14:23:27;;;;;;;;;;;8.60;59.80;;;;;;4994768;28;20288;-78
2023/02/11 14:25:56;;;;;;;;;;;8.70;59.10;;;;;;4992550;28;19909;-78
2023/02/11 14:28:25;;;;;;;;;;;8.80;60.20;;;;;;4995052;28;19910;-79
2023/02/11 14:30:51;;;;;;;;;;;8.80;59.10;;;;;;4999872;28;19916;-80
2023/02/11 14:33:27;;;;;;;;;;;8.80;54.50;;;;;;4995872;28;19917;-78
2023/02/11 14:36:18;;;;;;;;;;;8.50;55.10;;;;;;4985410;28;19917;-78
2023/02/11 14:38:55;;;;;;;;;;;8.50;56.70;;;;;;4989518;28;19910;-81
2023/02/11 14:41:25;;;;;;;;;;;8.40;58.80;;;;;;5000482;28;19931;-80
2023/02/11 14:44:03;;;;;;;;;;;8.30;59.30;;;;;;4999225;28;20110;-78
2023/02/11 14:46:29;;;;;;;;;;;8.40;55.70;;;;;;4990887;28;19910;-79
2023/02/11 14:48:57;;;;;;;;;;;8.30;56.10;;;;;;4979881;28;19948;-79
2023/02/11 14:51:30;;;;;;;;;;;8.30;58.00;;;;;;5000121;28;19917;-78